sensor_id;sensor_type;location;lat;lon;timestamp;P1;durP1;ratioP1;P2;durP2;ratioP2
20181;SDS011;10250;50.756;6.172;2024-02-21T00:00:02;22.20;;;5.93;;
20181;SDS011;10250;50.756;6.172;2024-02-21T00:02:03;22.37;;;6.50;;
20181;SDS011;10250;50.756;6.172;2024-02-21T00:04:04;23.10;;;5.73;;
20181;SDS011;10250;50.756;6.172;2024-02-21T00:06:05;23.53;;;5.90;;
20181;SDS011;10250;50.756;6.172;2024-02-21T00:08:06;21.60;;;5.90;;
20181;SDS011;10250;50.756;6.172;2024-02-21T00:10:07;23.57;;;6.13;;
20181;SDS011;10250;50.756;6.172;2024-02-21T00:12:09;17.60;;;5.93;;
20181;SDS011;10250;50.756;6.172;2024-02-21T00:14:09;18.47;;;5.80;;
20181;SDS011;10250;50.756;6.172;2024-02-21T00:16:10;23.37;;;6.23;;
20181;SDS011;10250;50.756;6.172;2024-02-21T00:18:11;21.87;;;5.53;;
20181;SDS011;10250;50.756;6.172;2024-02-21T00:20:12;25.87;;;6.07;;
20181;SDS011;10250;50.756;6.172;2024-02-21T00:22:13;25.77;;;5.97;;
20181;SDS011;10250;50.756;6.172;2024-02-21T00:24:14;25.43;;;6.33;;
20181;SDS011;10250;50.756;6.172;2024-02-21T00:26:14;24.07;;;6.00;;
20181;SDS011;10250;50.756;6.172;2024-02-21T00:28:15;21.50;;;6.00;;
20181;SDS011;10250;50.756;6.172;2024-02-21T00:30:15;24.77;;;6.87;;
20181;SDS011;10250;50.756;6.172;2024-02-21T00:32:16;23.17;;;6.27;;
20181;SDS011;10250;50.756;6.172;2024-02-21T00:34:17;24.87;;;6.57;;
20181;SDS011;10250;50.756;6.172;2024-02-21T00:36:17;22.90;;;6.50;;
20181;SDS011;10250;50.756;6.172;2024-02-21T00:38:18;21.30;;;5.93;;
20181;SDS011;10250;50.756;6.172;2024-02-21T00:40:18;23.30;;;6.93;;
20181;SDS011;10250;50.756;6.172;2024-02-21T00:42:20;22.80;;;6.10;;
20181;SDS011;10250;50.756;6.172;2024-02-21T00:44:21;19.07;;;6.07;;
20181;SDS011;10250;50.756;6.172;2024-02-21T00:46:21;22.57;;;6.50;;
20181;SDS011;10250;50.756;6.172;2024-02-21T00:48:22;18.07;;;5.50;;
20181;SDS011;10250;50.756;6.172;2024-02-21T00:50:23;22.10;;;6.77;;
20181;SDS011;10250;50.756;6.172;2024-02-21T00:52:23;20.67;;;6.03;;
20181;SDS011;10250;50.756;6.172;2024-02-21T00:54:24;21.60;;;5.83;;
20181;SDS011;10250;50.756;6.172;2024-02-21T00:56:24;20.60;;;6.10;;
20181;SDS011;10250;50.756;6.172;2024-02-21T00:58:25;18.37;;;5.90;;
20181;SDS011;10250;50.756;6.172;2024-02-21T01:00:25;21.27;;;6.67;;
20181;SDS011;10250;50.756;6.172;2024-02-21T01:02:26;19.53;;;6.30;;
20181;SDS011;10250;50.756;6.172;2024-02-21T01:04:27;23.17;;;6.53;;
20181;SDS011;10250;50.756;6.172;2024-02-21T01:06:27;20.73;;;6.03;;
20181;SDS011;10250;50.756;6.172;2024-02-21T01:08:28;21.03;;;5.70;;
20181;SDS011;10250;50.756;6.172;2024-02-21T01:10:28;19.70;;;5.83;;
20181;SDS011;10250;50.756;6.172;2024-02-21T01:12:29;21.60;;;6.20;;
20181;SDS011;10250;50.756;6.172;2024-02-21T01:14:30;23.93;;;5.97;;
20181;SDS011;10250;50.756;6.172;2024-02-21T01:16:31;21.13;;;6.00;;
20181;SDS011;10250;50.756;6.172;2024-02-21T01:18:36;24.73;;;6.30;;
20181;SDS011;10250;50.756;6.172;2024-02-21T01:20:37;20.37;;;5.40;;
20181;SDS011;10250;50.756;6.172;2024-02-21T01:22:38;24.83;;;6.33;;
20181;SDS011;10250;50.756;6.172;2024-02-21T01:24:39;22.73;;;6.13;;
20181;SDS011;10250;50.756;6.172;2024-02-21T01:26:40;21.23;;;5.67;;
20181;SDS011;10250;50.756;6.172;2024-02-21T01:28:41;20.23;;;5.23;;
20181;SDS011;10250;50.756;6.172;2024-02-21T01:30:42;19.83;;;6.20;;
20181;SDS011;10250;50.756;6.172;2024-02-21T01:32:42;18.70;;;5.40;;
20181;SDS011;10250;50.756;6.172;2024-02-21T01:34:43;22.17;;;5.77;;
20181;SDS011;10250;50.756;6.172;2024-02-21T01:36:43;22.37;;;5.87;;
20181;SDS011;10250;50.756;6.172;2024-02-21T01:38:44;20.37;;;4.90;;
20181;SDS011;10250;50.756;6.172;2024-02-21T01:40:44;21.60;;;5.93;;
20181;SDS011;10250;50.756;6.172;2024-02-21T01:42:45;21.63;;;6.23;;
20181;SDS011;10250;50.756;6.172;2024-02-21T01:44:47;22.33;;;6.13;;
20181;SDS011;10250;50.756;6.172;2024-02-21T01:46:48;28.53;;;6.40;;
20181;SDS011;10250;50.756;6.172;2024-02-21T01:48:48;21.97;;;5.90;;
20181;SDS011;10250;50.756;6.172;2024-02-21T01:50:49;21.67;;;5.93;;
20181;SDS011;10250;50.756;6.172;2024-02-21T01:52:51;22.13;;;5.87;;
20181;SDS011;10250;50.756;6.172;2024-02-21T01:54:51;21.90;;;5.23;;
20181;SDS011;10250;50.756;6.172;2024-02-21T01:57:00;20.67;;;5.10;;
20181;SDS011;10250;50.756;6.172;2024-02-21T01:59:01;19.87;;;5.20;;
20181;SDS011;10250;50.756;6.172;2024-02-21T02:01:01;23.77;;;6.17;;
20181;SDS011;10250;50.756;6.172;2024-02-21T02:03:02;21.47;;;5.70;;
20181;SDS011;10250;50.756;6.172;2024-02-21T02:05:03;24.53;;;6.40;;
20181;SDS011;10250;50.756;6.172;2024-02-21T02:07:06;21.60;;;5.10;;
20181;SDS011;10250;50.756;6.172;2024-02-21T02:09:07;28.73;;;6.30;;
20181;SDS011;10250;50.756;6.172;2024-02-21T02:11:07;19.47;;;5.67;;
20181;SDS011;10250;50.756;6.172;2024-02-21T02:13:08;20.43;;;5.37;;
20181;SDS011;10250;50.756;6.172;2024-02-21T02:15:09;21.30;;;5.13;;
20181;SDS011;10250;50.756;6.172;2024-02-21T02:17:10;21.43;;;5.90;;
20181;SDS011;10250;50.756;6.172;2024-02-21T02:19:10;21.53;;;6.10;;
20181;SDS011;10250;50.756;6.172;2024-02-21T02:21:15;23.10;;;5.53;;
20181;SDS011;10250;50.756;6.172;2024-02-21T02:23:34;18.80;;;5.30;;
20181;SDS011;10250;50.756;6.172;2024-02-21T02:25:35;20.00;;;5.13;;
20181;SDS011;10250;50.756;6.172;2024-02-21T02:27:43;17.70;;;5.53;;
20181;SDS011;10250;50.756;6.172;2024-02-21T02:29:45;18.87;;;5.63;;
20181;SDS011;10250;50.756;6.172;2024-02-21T02:31:45;19.83;;;5.77;;
20181;SDS011;10250;50.756;6.172;2024-02-21T02:33:46;20.87;;;5.10;;
20181;SDS011;10250;50.756;6.172;2024-02-21T02:35:48;16.50;;;5.50;;
20181;SDS011;10250;50.756;6.172;2024-02-21T02:37:49;27.47;;;6.20;;
20181;SDS011;10250;50.756;6.172;2024-02-21T02:39:50;20.33;;;5.27;;
20181;SDS011;10250;50.756;6.172;2024-02-21T02:41:50;22.40;;;5.23;;
20181;SDS011;10250;50.756;6.172;2024-02-21T02:43:51;17.73;;;5.13;;
20181;SDS011;10250;50.756;6.172;2024-02-21T02:45:51;18.63;;;5.43;;
20181;SDS011;10250;50.756;6.172;2024-02-21T02:47:52;19.67;;;5.17;;
20181;SDS011;10250;50.756;6.172;2024-02-21T02:49:59;24.53;;;5.70;;
20181;SDS011;10250;50.756;6.172;2024-02-21T02:52:00;18.13;;;5.37;;
20181;SDS011;10250;50.756;6.172;2024-02-21T02:54:01;19.00;;;5.33;;
20181;SDS011;10250;50.756;6.172;2024-02-21T02:56:03;21.60;;;5.47;;
20181;SDS011;10250;50.756;6.172;2024-02-21T02:58:03;24.10;;;4.97;;
20181;SDS011;10250;50.756;6.172;2024-02-21T03:00:04;20.80;;;5.30;;
20181;SDS011;10250;50.756;6.172;2024-02-21T03:02:07;18.67;;;5.00;;
20181;SDS011;10250;50.756;6.172;2024-02-21T03:04:07;19.80;;;5.67;;
20181;SDS011;10250;50.756;6.172;2024-02-21T03:06:08;22.10;;;5.67;;
20181;SDS011;10250;50.756;6.172;2024-02-21T03:08:08;19.17;;;5.20;;
20181;SDS011;10250;50.756;6.172;2024-02-21T03:10:09;23.23;;;5.70;;
20181;SDS011;10250;50.756;6.172;2024-02-21T03:12:10;22.13;;;5.13;;
20181;SDS011;10250;50.756;6.172;2024-02-21T03:14:11;20.43;;;5.37;;
20181;SDS011;10250;50.756;6.172;2024-02-21T03:16:12;17.70;;;5.57;;
20181;SDS011;10250;50.756;6.172;2024-02-21T03:18:12;22.40;;;5.67;;
20181;SDS011;10250;50.756;6.172;2024-02-21T03:20:13;22.90;;;5.17;;
20181;SDS011;10250;50.756;6.172;2024-02-21T03:22:14;21.07;;;5.73;;
20181;SDS011;10250;50.756;6.172;2024-02-21T03:24:14;20.13;;;5.67;;
20181;SDS011;10250;50.756;6.172;2024-02-21T03:26:15;22.67;;;6.10;;
20181;SDS011;10250;50.756;6.172;2024-02-21T03:28:17;21.83;;;5.37;;
20181;SDS011;10250;50.756;6.172;2024-02-21T03:30:17;21.93;;;5.07;;
20181;SDS011;10250;50.756;6.172;2024-02-21T03:32:18;21.87;;;5.60;;
20181;SDS011;10250;50.756;6.172;2024-02-21T03:34:19;18.00;;;4.97;;
20181;SDS011;10250;50.756;6.172;2024-02-21T03:36:19;20.73;;;5.03;;
20181;SDS011;10250;50.756;6.172;2024-02-21T03:38:20;18.20;;;5.33;;
20181;SDS011;10250;50.756;6.172;2024-02-21T03:40:20;19.67;;;5.27;;
20181;SDS011;10250;50.756;6.172;2024-02-21T03:42:21;24.47;;;4.90;;
20181;SDS011;10250;50.756;6.172;2024-02-21T03:44:21;16.23;;;4.97;;
20181;SDS011;10250;50.756;6.172;2024-02-21T03:46:23;17.87;;;4.93;;
20181;SDS011;10250;50.756;6.172;2024-02-21T03:48:25;17.73;;;4.80;;
20181;SDS011;10250;50.756;6.172;2024-02-21T03:50:25;18.60;;;5.47;;
20181;SDS011;10250;50.756;6.172;2024-02-21T03:52:27;18.83;;;5.10;;
20181;SDS011;10250;50.756;6.172;2024-02-21T03:54:28;19.47;;;5.23;;
20181;SDS011;10250;50.756;6.172;2024-02-21T03:56:28;20.90;;;5.63;;
20181;SDS011;10250;50.756;6.172;2024-02-21T03:58:32;18.93;;;5.40;;
20181;SDS011;10250;50.756;6.172;2024-02-21T04:00:33;20.03;;;5.07;;
20181;SDS011;10250;50.756;6.172;2024-02-21T04:02:33;19.30;;;4.63;;
20181;SDS011;10250;50.756;6.172;2024-02-21T04:04:37;18.73;;;5.03;;
20181;SDS011;10250;50.756;6.172;2024-02-21T04:06:51;22.77;;;5.63;;
20181;SDS011;10250;50.756;6.172;2024-02-21T04:08:51;17.10;;;4.47;;
20181;SDS011;10250;50.756;6.172;2024-02-21T04:10:52;21.20;;;5.57;;
20181;SDS011;10250;50.756;6.172;2024-02-21T04:12:53;20.00;;;6.07;;
20181;SDS011;10250;50.756;6.172;2024-02-21T04:14:53;18.70;;;4.57;;
20181;SDS011;10250;50.756;6.172;2024-02-21T04:16:54;16.07;;;4.77;;
20181;SDS011;10250;50.756;6.172;2024-02-21T04:18:54;20.30;;;4.53;;
20181;SDS011;10250;50.756;6.172;2024-02-21T04:20:55;16.40;;;4.57;;
20181;SDS011;10250;50.756;6.172;2024-02-21T04:22:56;19.57;;;5.17;;
20181;SDS011;10250;50.756;6.172;2024-02-21T04:24:57;25.77;;;5.20;;
20181;SDS011;10250;50.756;6.172;2024-02-21T04:26:57;21.57;;;5.17;;
20181;SDS011;10250;50.756;6.172;2024-02-21T04:28:58;20.77;;;4.60;;
20181;SDS011;10250;50.756;6.172;2024-02-21T04:30:58;21.73;;;4.87;;
20181;SDS011;10250;50.756;6.172;2024-02-21T04:32:59;20.23;;;5.53;;
20181;SDS011;10250;50.756;6.172;2024-02-21T04:35:00;18.57;;;4.83;;
20181;SDS011;10250;50.756;6.172;2024-02-21T04:37:00;14.80;;;4.27;;
20181;SDS011;10250;50.756;6.172;2024-02-21T04:39:01;20.07;;;5.10;;
20181;SDS011;10250;50.756;6.172;2024-02-21T04:41:02;19.47;;;4.33;;
20181;SDS011;10250;50.756;6.172;2024-02-21T04:43:02;17.03;;;4.70;;
20181;SDS011;10250;50.756;6.172;2024-02-21T04:45:03;19.87;;;4.93;;
20181;SDS011;10250;50.756;6.172;2024-02-21T04:47:04;18.70;;;4.83;;
20181;SDS011;10250;50.756;6.172;2024-02-21T04:49:05;18.30;;;4.77;;
20181;SDS011;10250;50.756;6.172;2024-02-21T04:51:05;19.00;;;4.40;;
20181;SDS011;10250;50.756;6.172;2024-02-21T04:53:06;19.13;;;4.47;;
20181;SDS011;10250;50.756;6.172;2024-02-21T04:55:06;22.63;;;4.67;;
20181;SDS011;10250;50.756;6.172;2024-02-21T04:57:08;20.57;;;4.40;;
20181;SDS011;10250;50.756;6.172;2024-02-21T04:59:10;16.00;;;4.30;;
20181;SDS011;10250;50.756;6.172;2024-02-21T05:01:10;20.70;;;4.37;;
20181;SDS011;10250;50.756;6.172;2024-02-21T05:03:11;23.10;;;4.80;;
20181;SDS011;10250;50.756;6.172;2024-02-21T05:05:11;19.97;;;4.17;;
20181;SDS011;10250;50.756;6.172;2024-02-21T05:07:14;15.27;;;4.33;;
20181;SDS011;10250;50.756;6.172;2024-02-21T05:09:14;20.80;;;4.07;;
20181;SDS011;10250;50.756;6.172;2024-02-21T05:11:15;20.67;;;4.50;;
20181;SDS011;10250;50.756;6.172;2024-02-21T05:13:16;18.70;;;3.70;;
20181;SDS011;10250;50.756;6.172;2024-02-21T05:15:16;19.40;;;4.70;;
20181;SDS011;10250;50.756;6.172;2024-02-21T05:17:17;21.23;;;4.33;;
20181;SDS011;10250;50.756;6.172;2024-02-21T05:19:18;16.83;;;3.90;;
20181;SDS011;10250;50.756;6.172;2024-02-21T05:21:18;17.87;;;3.87;;
20181;SDS011;10250;50.756;6.172;2024-02-21T05:23:19;16.50;;;3.77;;
20181;SDS011;10250;50.756;6.172;2024-02-21T05:25:20;16.63;;;4.17;;
20181;SDS011;10250;50.756;6.172;2024-02-21T05:27:20;13.40;;;3.47;;
20181;SDS011;10250;50.756;6.172;2024-02-21T05:29:21;18.90;;;3.77;;
20181;SDS011;10250;50.756;6.172;2024-02-21T05:31:21;14.97;;;3.50;;
20181;SDS011;10250;50.756;6.172;2024-02-21T05:33:22;15.00;;;3.50;;
20181;SDS011;10250;50.756;6.172;2024-02-21T05:35:28;17.03;;;3.93;;
20181;SDS011;10250;50.756;6.172;2024-02-21T05:37:29;14.23;;;3.20;;
20181;SDS011;10250;50.756;6.172;2024-02-21T05:39:30;13.30;;;3.37;;
20181;SDS011;10250;50.756;6.172;2024-02-21T05:41:30;13.23;;;3.80;;
20181;SDS011;10250;50.756;6.172;2024-02-21T05:43:31;18.07;;;3.33;;
20181;SDS011;10250;50.756;6.172;2024-02-21T05:45:33;14.10;;;3.43;;
20181;SDS011;10250;50.756;6.172;2024-02-21T05:47:34;17.97;;;3.90;;
20181;SDS011;10250;50.756;6.172;2024-02-21T05:49:35;24.60;;;3.93;;
20181;SDS011;10250;50.756;6.172;2024-02-21T05:51:35;13.40;;;3.93;;
20181;SDS011;10250;50.756;6.172;2024-02-21T05:53:36;17.57;;;3.47;;
20181;SDS011;10250;50.756;6.172;2024-02-21T05:55:40;18.30;;;4.00;;
20181;SDS011;10250;50.756;6.172;2024-02-21T05:57:41;13.20;;;3.37;;
20181;SDS011;10250;50.756;6.172;2024-02-21T05:59:42;15.33;;;3.10;;
20181;SDS011;10250;50.756;6.172;2024-02-21T06:01:43;22.07;;;3.43;;
20181;SDS011;10250;50.756;6.172;2024-02-21T06:03:44;15.30;;;3.90;;
20181;SDS011;10250;50.756;6.172;2024-02-21T06:05:45;17.03;;;3.97;;
20181;SDS011;10250;50.756;6.172;2024-02-21T06:07:45;14.13;;;3.43;;
20181;SDS011;10250;50.756;6.172;2024-02-21T06:09:46;15.03;;;3.17;;
20181;SDS011;10250;50.756;6.172;2024-02-21T06:11:46;16.53;;;3.50;;
20181;SDS011;10250;50.756;6.172;2024-02-21T06:13:49;17.30;;;3.90;;
20181;SDS011;10250;50.756;6.172;2024-02-21T06:15:49;15.10;;;3.33;;
20181;SDS011;10250;50.756;6.172;2024-02-21T06:17:50;14.53;;;3.63;;
20181;SDS011;10250;50.756;6.172;2024-02-21T06:19:51;17.83;;;3.60;;
20181;SDS011;10250;50.756;6.172;2024-02-21T06:21:51;17.60;;;3.90;;
20181;SDS011;10250;50.756;6.172;2024-02-21T06:23:52;16.57;;;3.80;;
20181;SDS011;10250;50.756;6.172;2024-02-21T06:25:53;20.93;;;3.87;;
20181;SDS011;10250;50.756;6.172;2024-02-21T06:27:53;17.30;;;3.63;;
20181;SDS011;10250;50.756;6.172;2024-02-21T06:29:54;15.43;;;3.40;;
20181;SDS011;10250;50.756;6.172;2024-02-21T06:31:54;17.63;;;3.90;;
20181;SDS011;10250;50.756;6.172;2024-02-21T06:33:55;16.97;;;3.67;;
20181;SDS011;10250;50.756;6.172;2024-02-21T06:35:55;19.03;;;4.20;;
20181;SDS011;10250;50.756;6.172;2024-02-21T06:37:56;18.97;;;4.07;;
20181;SDS011;10250;50.756;6.172;2024-02-21T06:39:57;14.13;;;3.43;;
20181;SDS011;10250;50.756;6.172;2024-02-21T06:41:59;16.87;;;3.67;;
20181;SDS011;10250;50.756;6.172;2024-02-21T06:43:59;15.03;;;3.73;;
20181;SDS011;10250;50.756;6.172;2024-02-21T06:46:00;18.83;;;3.97;;
20181;SDS011;10250;50.756;6.172;2024-02-21T06:48:01;18.63;;;3.60;;
20181;SDS011;10250;50.756;6.172;2024-02-21T06:50:02;18.17;;;4.00;;
20181;SDS011;10250;50.756;6.172;2024-02-21T06:52:06;15.50;;;3.53;;
20181;SDS011;10250;50.756;6.172;2024-02-21T06:54:07;18.13;;;3.93;;
20181;SDS011;10250;50.756;6.172;2024-02-21T06:56:07;16.50;;;4.07;;
20181;SDS011;10250;50.756;6.172;2024-02-21T06:58:08;20.57;;;5.03;;
20181;SDS011;10250;50.756;6.172;2024-02-21T07:00:11;17.97;;;4.17;;
20181;SDS011;10250;50.756;6.172;2024-02-21T07:02:13;15.90;;;4.17;;
20181;SDS011;10250;50.756;6.172;2024-02-21T07:04:13;15.57;;;4.30;;
20181;SDS011;10250;50.756;6.172;2024-02-21T07:06:14;16.93;;;4.20;;
20181;SDS011;10250;50.756;6.172;2024-02-21T07:08:15;17.77;;;4.30;;
20181;SDS011;10250;50.756;6.172;2024-02-21T07:10:16;15.93;;;4.13;;
20181;SDS011;10250;50.756;6.172;2024-02-21T07:12:16;14.50;;;3.93;;
20181;SDS011;10250;50.756;6.172;2024-02-21T07:14:18;15.80;;;3.70;;
20181;SDS011;10250;50.756;6.172;2024-02-21T07:16:18;18.03;;;4.30;;
20181;SDS011;10250;50.756;6.172;2024-02-21T07:18:19;14.30;;;3.63;;
20181;SDS011;10250;50.756;6.172;2024-02-21T07:20:20;15.03;;;3.83;;
20181;SDS011;10250;50.756;6.172;2024-02-21T07:22:20;21.03;;;4.30;;
20181;SDS011;10250;50.756;6.172;2024-02-21T07:24:21;17.07;;;4.07;;
20181;SDS011;10250;50.756;6.172;2024-02-21T07:26:21;16.07;;;3.90;;
20181;SDS011;10250;50.756;6.172;2024-02-21T07:28:22;17.27;;;3.83;;
20181;SDS011;10250;50.756;6.172;2024-02-21T07:30:22;19.07;;;3.73;;
20181;SDS011;10250;50.756;6.172;2024-02-21T07:32:23;16.13;;;3.73;;
20181;SDS011;10250;50.756;6.172;2024-02-21T07:34:24;15.53;;;4.00;;
20181;SDS011;10250;50.756;6.172;2024-02-21T07:36:28;16.10;;;3.10;;
20181;SDS011;10250;50.756;6.172;2024-02-21T07:38:30;15.47;;;4.07;;
20181;SDS011;10250;50.756;6.172;2024-02-21T07:40:30;16.77;;;3.93;;
20181;SDS011;10250;50.756;6.172;2024-02-21T07:42:31;15.47;;;3.67;;
20181;SDS011;10250;50.756;6.172;2024-02-21T07:44:32;16.80;;;3.90;;
20181;SDS011;10250;50.756;6.172;2024-02-21T07:46:32;18.00;;;4.87;;
20181;SDS011;10250;50.756;6.172;2024-02-21T07:48:33;13.70;;;3.47;;
20181;SDS011;10250;50.756;6.172;2024-02-21T07:50:33;15.03;;;3.20;;
20181;SDS011;10250;50.756;6.172;2024-02-21T07:52:34;12.50;;;3.40;;
20181;SDS011;10250;50.756;6.172;2024-02-21T07:54:35;14.53;;;3.20;;
20181;SDS011;10250;50.756;6.172;2024-02-21T07:56:35;13.60;;;3.70;;
20181;SDS011;10250;50.756;6.172;2024-02-21T07:58:36;14.70;;;3.20;;
20181;SDS011;10250;50.756;6.172;2024-02-21T08:00:36;16.73;;;3.57;;
20181;SDS011;10250;50.756;6.172;2024-02-21T08:02:37;13.00;;;3.47;;
20181;SDS011;10250;50.756;6.172;2024-02-21T08:04:37;14.03;;;3.63;;
20181;SDS011;10250;50.756;6.172;2024-02-21T08:06:38;14.90;;;3.33;;
20181;SDS011;10250;50.756;6.172;2024-02-21T08:08:39;13.93;;;3.40;;
20181;SDS011;10250;50.756;6.172;2024-02-21T08:10:39;13.37;;;3.20;;
20181;SDS011;10250;50.756;6.172;2024-02-21T08:12:40;17.53;;;3.47;;
20181;SDS011;10250;50.756;6.172;2024-02-21T08:14:41;16.30;;;3.77;;
20181;SDS011;10250;50.756;6.172;2024-02-21T08:16:42;15.80;;;3.37;;
20181;SDS011;10250;50.756;6.172;2024-02-21T08:18:45;12.73;;;3.43;;
20181;SDS011;10250;50.756;6.172;2024-02-21T08:20:46;16.00;;;3.80;;
20181;SDS011;10250;50.756;6.172;2024-02-21T08:22:46;20.50;;;3.77;;
20181;SDS011;10250;50.756;6.172;2024-02-21T08:24:47;13.73;;;3.17;;
20181;SDS011;10250;50.756;6.172;2024-02-21T08:26:48;16.47;;;3.60;;
20181;SDS011;10250;50.756;6.172;2024-02-21T08:28:48;15.03;;;4.00;;
20181;SDS011;10250;50.756;6.172;2024-02-21T08:30:50;13.87;;;3.20;;
20181;SDS011;10250;50.756;6.172;2024-02-21T08:32:50;15.23;;;3.57;;
20181;SDS011;10250;50.756;6.172;2024-02-21T08:34:51;13.53;;;3.50;;
20181;SDS011;10250;50.756;6.172;2024-02-21T08:36:51;16.60;;;3.77;;
20181;SDS011;10250;50.756;6.172;2024-02-21T08:38:52;11.20;;;3.00;;
20181;SDS011;10250;50.756;6.172;2024-02-21T08:40:52;13.87;;;3.33;;
20181;SDS011;10250;50.756;6.172;2024-02-21T08:42:53;14.80;;;3.00;;
20181;SDS011;10250;50.756;6.172;2024-02-21T08:44:54;14.53;;;3.17;;
20181;SDS011;10250;50.756;6.172;2024-02-21T08:46:54;14.03;;;3.17;;
20181;SDS011;10250;50.756;6.172;2024-02-21T08:48:55;11.40;;;3.00;;
20181;SDS011;10250;50.756;6.172;2024-02-21T08:50:55;15.20;;;3.70;;
20181;SDS011;10250;50.756;6.172;2024-02-21T08:53:01;16.20;;;3.50;;
20181;SDS011;10250;50.756;6.172;2024-02-21T08:55:02;14.37;;;3.27;;
20181;SDS011;10250;50.756;6.172;2024-02-21T08:57:03;16.73;;;3.17;;
20181;SDS011;10250;50.756;6.172;2024-02-21T08:59:03;15.47;;;3.60;;
20181;SDS011;10250;50.756;6.172;2024-02-21T09:01:04;11.63;;;2.90;;
20181;SDS011;10250;50.756;6.172;2024-02-21T09:03:05;13.63;;;3.07;;
20181;SDS011;10250;50.756;6.172;2024-02-21T09:05:06;12.30;;;3.20;;
20181;SDS011;10250;50.756;6.172;2024-02-21T09:07:07;18.27;;;3.53;;
20181;SDS011;10250;50.756;6.172;2024-02-21T09:09:10;15.97;;;3.20;;
20181;SDS011;10250;50.756;6.172;2024-02-21T09:11:11;12.13;;;3.27;;
20181;SDS011;10250;50.756;6.172;2024-02-21T09:13:11;15.30;;;3.10;;
20181;SDS011;10250;50.756;6.172;2024-02-21T09:15:12;12.50;;;2.77;;
20181;SDS011;10250;50.756;6.172;2024-02-21T09:17:13;11.77;;;2.73;;
20181;SDS011;10250;50.756;6.172;2024-02-21T09:19:14;15.87;;;3.30;;
20181;SDS011;10250;50.756;6.172;2024-02-21T09:21:15;12.73;;;2.87;;
20181;SDS011;10250;50.756;6.172;2024-02-21T09:23:15;13.17;;;2.80;;
20181;SDS011;10250;50.756;6.172;2024-02-21T09:25:16;12.10;;;2.93;;
20181;SDS011;10250;50.756;6.172;2024-02-21T09:27:17;16.50;;;2.70;;
20181;SDS011;10250;50.756;6.172;2024-02-21T09:29:17;14.90;;;3.03;;
20181;SDS011;10250;50.756;6.172;2024-02-21T09:31:18;14.73;;;3.17;;
20181;SDS011;10250;50.756;6.172;2024-02-21T09:33:19;12.60;;;3.20;;
20181;SDS011;10250;50.756;6.172;2024-02-21T09:35:20;13.77;;;2.80;;
20181;SDS011;10250;50.756;6.172;2024-02-21T09:37:23;10.53;;;2.63;;
20181;SDS011;10250;50.756;6.172;2024-02-21T09:39:24;15.37;;;2.90;;
20181;SDS011;10250;50.756;6.172;2024-02-21T09:41:25;15.80;;;3.10;;
20181;SDS011;10250;50.756;6.172;2024-02-21T09:43:29;12.03;;;3.03;;
20181;SDS011;10250;50.756;6.172;2024-02-21T09:45:30;12.93;;;3.47;;
20181;SDS011;10250;50.756;6.172;2024-02-21T09:47:39;13.57;;;2.97;;
20181;SDS011;10250;50.756;6.172;2024-02-21T09:49:59;12.37;;;2.90;;
20181;SDS011;10250;50.756;6.172;2024-02-21T09:52:02;14.50;;;2.70;;
20181;SDS011;10250;50.756;6.172;2024-02-21T09:54:03;12.67;;;2.60;;
20181;SDS011;10250;50.756;6.172;2024-02-21T09:56:05;17.80;;;3.43;;
20181;SDS011;10250;50.756;6.172;2024-02-21T09:58:08;12.73;;;3.20;;
20181;SDS011;10250;50.756;6.172;2024-02-21T10:00:09;11.03;;;3.00;;
20181;SDS011;10250;50.756;6.172;2024-02-21T10:02:11;12.83;;;2.97;;
20181;SDS011;10250;50.756;6.172;2024-02-21T10:04:12;14.00;;;2.83;;
20181;SDS011;10250;50.756;6.172;2024-02-21T10:06:13;14.37;;;3.07;;
20181;SDS011;10250;50.756;6.172;2024-02-21T10:08:14;11.93;;;2.80;;
20181;SDS011;10250;50.756;6.172;2024-02-21T10:10:15;13.47;;;2.93;;
20181;SDS011;10250;50.756;6.172;2024-02-21T10:12:16;14.03;;;3.03;;
20181;SDS011;10250;50.756;6.172;2024-02-21T10:14:19;13.73;;;2.90;;
20181;SDS011;10250;50.756;6.172;2024-02-21T10:16:20;13.23;;;2.73;;
20181;SDS011;10250;50.756;6.172;2024-02-21T10:18:21;13.07;;;3.10;;
20181;SDS011;10250;50.756;6.172;2024-02-21T10:20:22;11.37;;;2.77;;
20181;SDS011;10250;50.756;6.172;2024-02-21T10:22:22;13.47;;;3.10;;
20181;SDS011;10250;50.756;6.172;2024-02-21T10:24:28;10.90;;;2.80;;
20181;SDS011;10250;50.756;6.172;2024-02-21T10:26:29;14.60;;;3.00;;
20181;SDS011;10250;50.756;6.172;2024-02-21T10:28:29;13.80;;;3.07;;
20181;SDS011;10250;50.756;6.172;2024-02-21T10:30:30;13.27;;;3.50;;
20181;SDS011;10250;50.756;6.172;2024-02-21T10:32:30;12.00;;;2.83;;
20181;SDS011;10250;50.756;6.172;2024-02-21T10:34:31;15.23;;;3.60;;
20181;SDS011;10250;50.756;6.172;2024-02-21T10:36:32;15.33;;;3.57;;
20181;SDS011;10250;50.756;6.172;2024-02-21T10:38:32;13.67;;;3.50;;
20181;SDS011;10250;50.756;6.172;2024-02-21T10:40:33;14.27;;;3.07;;
20181;SDS011;10250;50.756;6.172;2024-02-21T10:42:34;16.83;;;3.70;;
20181;SDS011;10250;50.756;6.172;2024-02-21T10:44:38;16.03;;;3.27;;
20181;SDS011;10250;50.756;6.172;2024-02-21T10:46:40;13.07;;;3.37;;
20181;SDS011;10250;50.756;6.172;2024-02-21T10:48:43;15.60;;;3.20;;
20181;SDS011;10250;50.756;6.172;2024-02-21T10:50:57;14.00;;;3.33;;
20181;SDS011;10250;50.756;6.172;2024-02-21T10:55:37;16.20;;;3.50;;
20181;SDS011;10250;50.756;6.172;2024-02-21T10:57:41;13.73;;;3.27;;
20181;SDS011;10250;50.756;6.172;2024-02-21T10:59:44;16.93;;;3.60;;
20181;SDS011;10250;50.756;6.172;2024-02-21T11:01:45;12.23;;;3.03;;
20181;SDS011;10250;50.756;6.172;2024-02-21T11:03:46;15.17;;;3.27;;
20181;SDS011;10250;50.756;6.172;2024-02-21T11:05:49;13.10;;;2.90;;
20181;SDS011;10250;50.756;6.172;2024-02-21T11:07:51;14.33;;;2.97;;
20181;SDS011;10250;50.756;6.172;2024-02-21T11:09:52;16.63;;;3.50;;
20181;SDS011;10250;50.756;6.172;2024-02-21T11:11:55;12.70;;;3.00;;
20181;SDS011;10250;50.756;6.172;2024-02-21T11:14:08;13.70;;;3.27;;
20181;SDS011;10250;50.756;6.172;2024-02-21T11:16:09;15.90;;;3.20;;
20181;SDS011;10250;50.756;6.172;2024-02-21T11:18:11;11.00;;;2.80;;
20181;SDS011;10250;50.756;6.172;2024-02-21T11:20:12;14.73;;;3.27;;
20181;SDS011;10250;50.756;6.172;2024-02-21T11:22:19;13.50;;;3.07;;
20181;SDS011;10250;50.756;6.172;2024-02-21T11:24:28;17.50;;;4.00;;
20181;SDS011;10250;50.756;6.172;2024-02-21T11:26:30;15.37;;;3.50;;
20181;SDS011;10250;50.756;6.172;2024-02-21T11:28:31;12.67;;;3.10;;
20181;SDS011;10250;50.756;6.172;2024-02-21T11:30:32;11.83;;;3.30;;
20181;SDS011;10250;50.756;6.172;2024-02-21T11:32:36;14.77;;;3.10;;
20181;SDS011;10250;50.756;6.172;2024-02-21T11:34:36;17.10;;;3.30;;
20181;SDS011;10250;50.756;6.172;2024-02-21T11:36:47;13.00;;;3.37;;
20181;SDS011;10250;50.756;6.172;2024-02-21T11:38:49;16.90;;;3.60;;
20181;SDS011;10250;50.756;6.172;2024-02-21T11:40:49;12.53;;;3.10;;
20181;SDS011;10250;50.756;6.172;2024-02-21T11:42:50;13.10;;;3.33;;
20181;SDS011;10250;50.756;6.172;2024-02-21T11:44:50;15.37;;;3.43;;
20181;SDS011;10250;50.756;6.172;2024-02-21T11:46:52;16.00;;;3.80;;
20181;SDS011;10250;50.756;6.172;2024-02-21T11:48:53;16.13;;;3.20;;
20181;SDS011;10250;50.756;6.172;2024-02-21T11:50:54;15.57;;;3.60;;
20181;SDS011;10250;50.756;6.172;2024-02-21T11:52:55;14.80;;;4.00;;
20181;SDS011;10250;50.756;6.172;2024-02-21T11:54:57;17.37;;;3.73;;
20181;SDS011;10250;50.756;6.172;2024-02-21T11:57:04;17.13;;;3.90;;
20181;SDS011;10250;50.756;6.172;2024-02-21T11:59:05;14.30;;;3.90;;
20181;SDS011;10250;50.756;6.172;2024-02-21T12:01:06;14.57;;;4.10;;